createdAt,value
2023-02-16T00:00:48.769Z,122.93
2023-02-16T00:03:20.077Z,125.23
2023-02-16T00:05:48.070Z,120.40
2023-02-16T00:08:15.350Z,114.73
2023-02-16T00:10:42.444Z,118.97
2023-02-16T00:13:44.973Z,126.53
2023-02-16T00:16:18.211Z,120.37
2023-02-16T00:18:45.316Z,127.03
2023-02-16T00:21:12.576Z,128.50
2023-02-16T00:23:39.559Z,123.37
2023-02-16T00:26:13.124Z,130.50
2023-02-16T00:28:41.687Z,131.63
2023-02-16T00:31:18.377Z,127.37
2023-02-16T00:33:45.693Z,121.37
2023-02-16T00:36:12.715Z,128.50
2023-02-16T00:38:39.846Z,128.00
2023-02-16T00:41:33.718Z,130.70
2023-02-16T00:44:00.658Z,127.57
2023-02-16T00:46:27.687Z,128.97
2023-02-16T00:48:54.632Z,126.20
2023-02-16T00:51:26.166Z,131.07
2023-02-16T00:53:53.401Z,126.60
2023-02-16T00:56:21.352Z,131.67
2023-02-16T00:58:50.791Z,123.03
2023-02-16T01:01:21.224Z,135.47
2023-02-16T01:03:48.383Z,123.27
2023-02-16T01:06:35.239Z,127.03
2023-02-16T01:09:32.600Z,135.17
2023-02-16T01:12:00.559Z,129.90
2023-02-16T01:14:27.798Z,128.20
2023-02-16T01:16:54.813Z,127.00
2023-02-16T01:19:21.889Z,132.47
2023-02-16T01:21:48.872Z,135.57
2023-02-16T01:24:15.830Z,122.03
2023-02-16T01:26:48.198Z,119.10
2023-02-16T01:29:17.288Z,133.77
2023-02-16T01:31:44.806Z,136.90
2023-02-16T01:34:12.208Z,127.60
2023-02-16T01:36:43.653Z,142.20
2023-02-16T01:39:16.534Z,132.27
2023-02-16T01:42:23.180Z,123.87
2023-02-16T01:47:46.499Z,120.23
2023-02-16T01:50:20.997Z,124.00
2023-02-16T01:53:15.320Z,119.47
2023-02-16T01:55:45.280Z,137.70
2023-02-16T01:58:27.633Z,130.90
2023-02-16T02:01:30.995Z,134.43
2023-02-16T02:04:17.952Z,133.90
2023-02-16T02:06:44.944Z,129.63
2023-02-16T02:09:19.808Z,137.57
2023-02-16T02:11:53.693Z,109.72
2023-02-16T02:14:26.972Z,136.97
2023-02-16T02:17:16.745Z,144.10
2023-02-16T02:20:07.060Z,135.80
2023-02-16T02:23:33.638Z,131.87
2023-02-16T02:26:33.710Z,132.45
2023-02-16T02:29:40.416Z,133.33
2023-02-16T02:38:20.645Z,124.77
2023-02-16T02:48:53.940Z,125.10
2023-02-16T02:51:40.428Z,125.03
2023-02-16T02:54:49.832Z,137.10
2023-02-16T02:57:51.219Z,120.17
2023-02-16T03:00:41.446Z,132.27
2023-02-16T03:03:14.442Z,121.07
2023-02-16T03:05:47.624Z,131.20
2023-02-16T03:08:19.128Z,128.70
2023-02-16T03:11:10.256Z,134.13
2023-02-16T03:13:42.046Z,135.10
2023-02-16T03:16:14.276Z,139.37
2023-02-16T03:19:03.950Z,133.37
2023-02-16T03:21:52.830Z,134.10
2023-02-16T03:24:46.851Z,136.60
2023-02-16T03:27:38.173Z,127.50
2023-02-16T03:30:07.039Z,140.67
2023-02-16T03:32:35.013Z,131.10
2023-02-16T03:35:02.062Z,124.40
2023-02-16T03:37:29.084Z,129.63
2023-02-16T03:40:16.152Z,132.37
2023-02-16T03:42:50.001Z,125.90
2023-02-16T03:45:17.631Z,122.90
2023-02-16T03:47:44.614Z,133.03
2023-02-16T03:50:11.946Z,121.13
2023-02-16T03:52:39.217Z,129.77
2023-02-16T03:55:06.426Z,131.17
2023-02-16T03:57:33.354Z,133.60
2023-02-16T04:00:00.484Z,119.23
2023-02-16T04:02:28.835Z,127.23
2023-02-16T04:04:55.946Z,119.10
2023-02-16T04:07:22.918Z,120.07
2023-02-16T04:09:49.902Z,115.00
2023-02-16T04:12:36.771Z,113.70
2023-02-16T04:15:09.540Z,122.73
2023-02-16T04:17:36.981Z,114.17
2023-02-16T04:20:04.832Z,124.43
2023-02-16T04:22:31.808Z,118.60
2023-02-16T04:24:58.803Z,113.63
2023-02-16T04:27:25.743Z,115.60
2023-02-16T04:29:52.773Z,114.43
2023-02-16T04:32:20.015Z,126.87
2023-02-16T04:34:47.046Z,125.53
2023-02-16T04:37:14.107Z,113.50
2023-02-16T04:39:41.115Z,117.07
2023-02-16T04:42:08.232Z,116.90
2023-02-16T04:44:35.196Z,127.87
2023-02-16T04:47:02.177Z,143.77
2023-02-16T04:49:29.183Z,121.90
2023-02-16T04:51:56.375Z,122.67
2023-02-16T04:54:23.441Z,124.00
2023-02-16T04:56:50.393Z,121.13
2023-02-16T04:59:17.448Z,125.13
2023-02-16T05:01:44.445Z,122.07
2023-02-16T05:04:11.460Z,106.37
2023-02-16T05:06:39.116Z,115.53
2023-02-16T05:09:07.102Z,114.03
2023-02-16T05:11:54.316Z,123.23
2023-02-16T05:14:42.881Z,121.13
2023-02-16T05:17:30.564Z,107.43
2023-02-16T05:20:00.179Z,107.60
2023-02-16T05:22:28.971Z,112.27
2023-02-16T05:24:55.991Z,100.60
2023-02-16T05:27:27.206Z,103.03
2023-02-16T05:29:54.497Z,101.87
2023-02-16T05:32:21.953Z,99.93
2023-02-16T05:34:48.991Z,105.17
2023-02-16T05:37:18.245Z,110.53
2023-02-16T05:39:45.518Z,106.33
2023-02-16T05:42:12.572Z,110.17
2023-02-16T05:44:39.556Z,91.13
2023-02-16T05:47:06.705Z,116.17
2023-02-16T05:49:33.724Z,107.73
2023-02-16T05:52:00.732Z,109.17
2023-02-16T05:54:28.182Z,104.13
2023-02-16T05:56:55.225Z,117.00
2023-02-16T05:59:22.265Z,105.77
2023-02-16T06:01:51.830Z,104.73
2023-02-16T06:04:20.101Z,120.43
2023-02-16T06:06:47.345Z,110.30
2023-02-16T06:09:14.361Z,111.43
2023-02-16T06:11:41.360Z,107.50
2023-02-16T06:14:13.049Z,112.90
2023-02-16T06:16:41.835Z,124.43
2023-02-16T06:19:09.706Z,122.17
2023-02-16T06:21:39.417Z,104.43
2023-02-16T06:24:08.248Z,99.73
2023-02-16T06:26:35.666Z,104.93
2023-02-16T06:29:03.176Z,106.37
2023-02-16T06:31:30.236Z,113.83
2023-02-16T06:33:57.602Z,123.53
2023-02-16T06:36:25.228Z,109.57
2023-02-16T06:38:52.684Z,115.23
2023-02-16T06:41:38.037Z,112.87
2023-02-16T06:44:08.934Z,99.82
2023-02-16T06:46:36.683Z,99.13
2023-02-16T06:49:03.799Z,101.30
2023-02-16T06:51:30.799Z,106.50
2023-02-16T06:53:57.914Z,133.60
2023-02-16T06:56:25.467Z,102.30
2023-02-16T06:58:52.483Z,115.33
2023-02-16T07:01:23.388Z,112.27
2023-02-16T07:03:52.055Z,128.83
2023-02-16T07:06:19.999Z,115.20
2023-02-16T07:08:47.024Z,136.23
2023-02-16T07:11:15.931Z,111.30
2023-02-16T07:13:43.132Z,111.17
2023-02-16T07:16:10.636Z,110.10
2023-02-16T07:18:38.029Z,115.03
2023-02-16T07:21:06.744Z,118.93
2023-02-16T07:23:34.437Z,106.90
2023-02-16T07:26:01.408Z,109.13
2023-02-16T07:28:28.339Z,122.67
2023-02-16T07:30:55.559Z,116.80
2023-02-16T07:33:22.742Z,104.80
2023-02-16T07:35:50.358Z,136.63
2023-02-16T07:38:17.470Z,116.30
2023-02-16T07:40:44.435Z,94.27
2023-02-16T07:43:11.392Z,100.70
2023-02-16T07:45:38.397Z,114.70
2023-02-16T07:48:05.738Z,113.50
2023-02-16T07:50:32.743Z,120.50
2023-02-16T07:53:02.833Z,108.47
2023-02-16T07:55:30.603Z,100.20
2023-02-16T07:57:57.566Z,119.67
2023-02-16T08:00:24.742Z,107.73
2023-02-16T08:02:52.084Z,105.83
2023-02-16T08:05:19.160Z,90.57
2023-02-16T08:07:46.807Z,111.83
2023-02-16T08:10:14.688Z,92.43
2023-02-16T08:12:42.344Z,94.83
2023-02-16T08:15:10.059Z,90.03
2023-02-16T08:17:37.044Z,96.53
2023-02-16T08:20:05.730Z,92.43
2023-02-16T08:22:33.067Z,98.63
2023-02-16T08:25:00.394Z,92.97
2023-02-16T08:27:27.421Z,90.87
2023-02-16T08:29:54.716Z,99.97
2023-02-16T08:32:21.872Z,95.07
2023-02-16T08:34:49.045Z,93.60
2023-02-16T08:37:16.063Z,108.43
2023-02-16T08:39:43.129Z,98.97
2023-02-16T08:42:12.233Z,92.20
2023-02-16T08:44:40.044Z,91.57
2023-02-16T08:47:07.064Z,95.37
2023-02-16T08:49:34.041Z,86.70
2023-02-16T08:52:01.853Z,94.80
2023-02-16T08:54:30.678Z,92.23
2023-02-16T08:56:59.893Z,86.43
2023-02-16T08:59:28.770Z,79.27
2023-02-16T09:01:57.025Z,90.10
2023-02-16T09:04:25.782Z,85.67
2023-02-16T09:06:53.540Z,81.30
2023-02-16T09:09:20.784Z,82.87
2023-02-16T09:11:48.770Z,85.30
2023-02-16T09:14:18.178Z,87.40
2023-02-16T09:16:46.602Z,91.10
2023-02-16T09:19:15.706Z,93.90
2023-02-16T09:21:43.303Z,83.30
2023-02-16T09:24:11.683Z,81.67
2023-02-16T09:26:42.798Z,79.43
2023-02-16T09:29:12.447Z,76.30
2023-02-16T09:31:39.983Z,73.63
2023-02-16T09:34:28.630Z,78.97
2023-02-16T09:36:55.636Z,80.03
2023-02-16T09:39:22.892Z,85.20
2023-02-16T09:42:29.609Z,79.40
2023-02-16T09:47:45.918Z,73.80
2023-02-16T09:50:52.481Z,78.23
2023-02-16T09:53:30.583Z,85.53
2023-02-16T09:56:07.026Z,83.00
2023-02-16T09:58:45.159Z,80.20
2023-02-16T10:01:40.225Z,76.63
2023-02-16T10:04:47.451Z,72.67
2023-02-16T10:07:42.588Z,79.57
2023-02-16T10:10:15.123Z,70.43
2023-02-16T10:12:49.418Z,72.10
2023-02-16T10:15:20.624Z,65.03
2023-02-16T10:17:53.693Z,74.47
2023-02-16T10:20:39.448Z,63.40
2023-02-16T10:23:31.520Z,69.97
2023-02-16T10:26:22.800Z,65.17
2023-02-16T10:28:54.604Z,69.40
2023-02-16T10:31:43.704Z,68.93
2023-02-16T10:34:39.108Z,65.27
2023-02-16T10:37:34.507Z,68.60
2023-02-16T10:40:29.861Z,73.93
2023-02-16T10:43:36.544Z,70.88
2023-02-16T10:48:32.027Z,73.43
2023-02-16T10:51:16.894Z,76.83
2023-02-16T10:54:05.627Z,74.47
2023-02-16T10:57:09.977Z,73.27
2023-02-16T10:59:40.145Z,69.10
2023-02-16T11:02:38.217Z,69.57
2023-02-16T11:05:44.894Z,63.97
2023-02-16T11:11:07.988Z,68.93
2023-02-16T11:13:37.443Z,65.57
2023-02-16T11:16:12.160Z,68.33
2023-02-16T11:18:42.929Z,70.15
2023-02-16T11:21:12.312Z,63.00
2023-02-16T11:23:59.856Z,67.37
2023-02-16T11:26:28.932Z,64.47
2023-02-16T11:29:17.826Z,61.67
2023-02-16T11:31:45.296Z,59.10
2023-02-16T11:34:33.171Z,60.60
2023-02-16T11:37:13.523Z,60.23
2023-02-16T11:39:47.077Z,56.43
2023-02-16T11:42:35.100Z,58.37
2023-02-16T11:45:04.500Z,60.60
2023-02-16T11:47:34.746Z,60.03
2023-02-16T11:50:41.474Z,53.73
2023-02-16T11:53:48.172Z,56.97
2023-02-16T11:56:35.708Z,57.77
2023-02-16T11:59:27.225Z,56.63
2023-02-16T12:02:12.497Z,53.60
2023-02-16T12:05:09.768Z,50.30
2023-02-16T12:08:16.488Z,52.13
2023-02-16T12:11:25.578Z,53.13
2023-02-16T12:14:36.178Z,57.60
2023-02-16T12:17:43.288Z,54.37
2023-02-16T12:20:34.086Z,56.83
2023-02-16T12:23:40.826Z,55.23
2023-02-16T12:26:47.653Z,57.53
2023-02-16T12:29:41.527Z,65.13
2023-02-16T12:32:48.474Z,62.80
2023-02-16T12:35:55.290Z,66.90
2023-02-16T12:38:56.913Z,63.57
2023-02-16T12:42:03.620Z,68.00
2023-02-16T12:44:54.351Z,71.30
2023-02-16T12:47:29.912Z,70.50
2023-02-16T12:50:01.629Z,75.23
2023-02-16T12:52:52.823Z,71.70
2023-02-16T12:55:44.589Z,73.10
2023-02-16T12:58:33.917Z,73.97
2023-02-16T13:01:09.274Z,88.80
2023-02-16T13:06:46.547Z,85.70
2023-02-16T13:09:46.227Z,79.33
2023-02-16T13:12:53.196Z,81.10
2023-02-16T13:15:43.551Z,80.33
2023-02-16T13:18:20.589Z,89.13
2023-02-16T13:20:53.008Z,81.10
2023-02-16T13:23:59.750Z,81.90
2023-02-16T13:26:59.901Z,82.93
2023-02-16T13:30:06.611Z,81.90
2023-02-16T13:33:04.227Z,84.33
2023-02-16T13:36:10.916Z,85.03
2023-02-16T13:42:04.306Z,85.50
2023-02-16T13:47:05.093Z,79.00
2023-02-16T13:49:42.471Z,78.23
2023-02-16T13:52:11.760Z,84.47
2023-02-16T13:54:43.803Z,85.63
2023-02-16T13:57:13.772Z,87.57
2023-02-16T14:00:02.292Z,82.53
2023-02-16T14:02:54.533Z,85.33
2023-02-16T14:05:27.638Z,85.50
2023-02-16T14:08:34.339Z,86.93
2023-02-16T14:13:50.989Z,82.57
2023-02-16T14:16:34.783Z,81.07
2023-02-16T14:19:19.653Z,83.10
2023-02-16T14:21:49.018Z,90.22
2023-02-16T14:24:38.074Z,83.27
2023-02-16T14:27:07.730Z,90.57
2023-02-16T14:29:59.633Z,98.93
2023-02-16T14:32:32.338Z,90.20
2023-02-16T14:35:08.286Z,83.07
2023-02-16T14:37:40.600Z,93.23
2023-02-16T14:40:47.409Z,99.00
2023-02-16T14:43:43.131Z,97.73
2023-02-16T14:46:34.809Z,97.28
2023-02-16T14:49:41.549Z,102.47
2023-02-16T14:52:48.193Z,111.07
2023-02-16T14:58:14.248Z,117.10
2023-02-16T15:01:12.286Z,96.97
2023-02-16T15:03:59.244Z,95.40
2023-02-16T15:06:47.196Z,97.70
2023-02-16T15:09:24.038Z,92.17
2023-02-16T15:12:13.554Z,89.23
2023-02-16T15:14:45.215Z,84.30
2023-02-16T15:17:39.901Z,96.93
2023-02-16T15:20:19.829Z,94.67
2023-02-16T15:22:56.050Z,103.77
2023-02-16T15:25:45.329Z,95.67
2023-02-16T15:28:37.109Z,96.73
2023-02-16T15:31:07.722Z,107.33
2023-02-16T15:33:39.585Z,94.47
2023-02-16T15:36:35.504Z,96.67
2023-02-16T15:39:06.917Z,101.95
2023-02-16T15:41:55.814Z,107.13
2023-02-16T15:44:34.538Z,101.87
2023-02-16T15:47:22.872Z,100.67
2023-02-16T15:49:50.386Z,97.80
2023-02-16T15:52:26.361Z,104.33
2023-02-16T15:54:53.710Z,102.07
2023-02-16T15:57:38.850Z,101.63
2023-02-16T16:00:19.448Z,101.30
2023-02-16T16:02:49.633Z,94.23
2023-02-16T16:05:36.345Z,98.63
2023-02-16T16:08:04.512Z,95.10
2023-02-16T16:10:51.436Z,97.33
2023-02-16T16:13:23.136Z,104.70
2023-02-16T16:15:51.611Z,95.33
2023-02-16T16:18:58.340Z,99.33
2023-02-16T16:24:04.059Z,95.67
2023-02-16T16:26:35.381Z,96.37
2023-02-16T16:29:03.357Z,102.70
2023-02-16T16:31:34.366Z,100.80
2023-02-16T16:34:12.516Z,121.93
2023-02-16T16:37:04.720Z,123.03
2023-02-16T16:39:41.625Z,123.17
2023-02-16T16:42:28.751Z,108.87
2023-02-16T16:45:35.477Z,97.70
2023-02-16T16:48:10.696Z,97.33
2023-02-16T16:50:39.856Z,96.57
2023-02-16T16:53:46.670Z,95.93
2023-02-16T16:58:41.016Z,100.67
2023-02-16T17:01:09.900Z,106.47
2023-02-16T17:03:36.855Z,101.13
2023-02-16T17:06:04.366Z,104.87
2023-02-16T17:08:31.519Z,106.53
2023-02-16T17:10:58.604Z,109.73
2023-02-16T17:13:27.458Z,105.73
2023-02-16T17:16:02.606Z,106.70
2023-02-16T17:18:29.681Z,107.47
2023-02-16T17:20:56.741Z,103.67
2023-02-16T17:23:24.058Z,103.63
2023-02-16T17:25:51.530Z,107.70
2023-02-16T17:28:19.688Z,104.70
2023-02-16T17:30:46.877Z,103.83
2023-02-16T17:33:14.686Z,109.30
2023-02-16T17:35:43.350Z,111.97
2023-02-16T17:38:13.098Z,111.10
2023-02-16T17:40:41.344Z,114.67
2023-02-16T17:43:12.992Z,107.07
2023-02-16T17:45:40.475Z,109.20
2023-02-16T17:48:07.873Z,111.80
2023-02-16T17:50:35.080Z,113.03
2023-02-16T17:53:02.133Z,112.07
2023-02-16T17:55:29.206Z,111.60
2023-02-16T17:57:58.232Z,113.53
2023-02-16T18:00:25.272Z,158.53
2023-02-16T18:02:52.309Z,119.73
2023-02-16T18:05:19.391Z,113.33
2023-02-16T18:07:46.446Z,126.23
2023-02-16T18:10:19.967Z,119.83
2023-02-16T18:12:47.023Z,117.57
2023-02-16T18:15:13.986Z,117.03
2023-02-16T18:17:40.948Z,113.77
2023-02-16T18:20:10.290Z,112.13
2023-02-16T18:22:37.310Z,118.30
2023-02-16T18:25:04.569Z,111.20
2023-02-16T18:27:31.517Z,114.23
2023-02-16T18:29:58.686Z,111.87
2023-02-16T18:32:25.718Z,123.63
2023-02-16T18:34:52.685Z,110.73
2023-02-16T18:37:19.654Z,120.60
2023-02-16T18:39:46.644Z,112.60
2023-02-16T18:42:13.956Z,117.03
2023-02-16T18:44:40.902Z,114.20
2023-02-16T18:47:09.189Z,118.63
2023-02-16T18:49:36.173Z,112.27
2023-02-16T18:52:03.096Z,114.97
2023-02-16T18:54:30.125Z,123.07
2023-02-16T18:56:57.207Z,134.20
2023-02-16T18:59:24.337Z,120.47
2023-02-16T19:01:57.615Z,110.50
2023-02-16T19:04:25.273Z,119.47
2023-02-16T19:06:52.824Z,113.53
2023-02-16T19:09:20.090Z,116.13
2023-02-16T19:11:47.838Z,115.03
2023-02-16T19:14:16.764Z,123.67
2023-02-16T19:16:43.794Z,115.50
2023-02-16T19:19:10.905Z,113.30
2023-02-16T19:21:40.125Z,118.10
2023-02-16T19:24:08.048Z,123.10
2023-02-16T19:26:35.029Z,127.63
2023-02-16T19:29:01.989Z,116.97
2023-02-16T19:31:31.092Z,118.60
2023-02-16T19:33:59.332Z,116.13
2023-02-16T19:36:41.792Z,109.63
2023-02-16T19:39:09.081Z,121.80
2023-02-16T19:41:38.488Z,106.90
2023-02-16T19:44:06.355Z,111.33
2023-02-16T19:46:34.632Z,107.97
2023-02-16T19:49:02.080Z,114.80
2023-02-16T19:51:29.918Z,125.63
2023-02-16T19:53:57.069Z,117.97
2023-02-16T19:56:26.204Z,117.53
2023-02-16T19:58:55.886Z,109.57
2023-02-16T20:01:25.677Z,124.67
2023-02-16T20:03:53.697Z,113.63
2023-02-16T20:06:25.501Z,117.07
2023-02-16T20:08:54.228Z,114.70
2023-02-16T20:11:24.056Z,115.10
2023-02-16T20:13:51.423Z,112.67
2023-02-16T20:16:19.646Z,121.37
2023-02-16T20:18:47.220Z,113.30
2023-02-16T20:21:16.955Z,117.73
2023-02-16T20:23:44.138Z,116.93
2023-02-16T20:26:15.494Z,109.83
2023-02-16T20:28:42.697Z,107.17
2023-02-16T20:31:17.390Z,117.30
2023-02-16T20:33:44.862Z,122.57
2023-02-16T20:36:12.128Z,115.13
2023-02-16T20:38:39.564Z,118.90
2023-02-16T20:41:06.713Z,111.53
2023-02-16T20:43:34.195Z,113.77
2023-02-16T20:46:03.341Z,107.67
2023-02-16T20:48:30.571Z,114.50
2023-02-16T20:50:59.617Z,111.27
2023-02-16T20:53:28.836Z,104.63
2023-02-16T20:56:20.037Z,112.93
2023-02-16T20:58:49.001Z,112.57
2023-02-16T21:01:27.865Z,108.00
2023-02-16T21:03:56.407Z,111.40
2023-02-16T21:06:24.530Z,113.70
2023-02-16T21:08:51.808Z,110.30
2023-02-16T21:11:18.844Z,111.80
2023-02-16T21:13:46.399Z,105.60
2023-02-16T21:16:14.484Z,116.57
2023-02-16T21:18:41.915Z,111.30
2023-02-16T21:21:10.046Z,123.93
2023-02-16T21:23:37.075Z,112.07
2023-02-16T21:26:06.336Z,113.97
2023-02-16T21:28:33.581Z,120.33
2023-02-16T21:31:05.524Z,113.93
2023-02-16T21:33:33.092Z,111.23
2023-02-16T21:36:24.531Z,120.67
2023-02-16T21:38:51.569Z,124.63
2023-02-16T21:41:24.951Z,123.27
2023-02-16T21:44:13.380Z,123.10
2023-02-16T21:46:42.476Z,124.03
2023-02-16T21:49:13.892Z,119.47
2023-02-16T21:51:42.847Z,111.40
2023-02-16T21:54:14.153Z,117.90
2023-02-16T21:57:03.477Z,122.87
2023-02-16T21:59:30.510Z,124.47
2023-02-16T22:01:59.199Z,120.30
2023-02-16T22:04:26.194Z,121.63
2023-02-16T22:06:54.458Z,124.43
2023-02-16T22:09:23.215Z,124.07
2023-02-16T22:11:51.205Z,112.93
2023-02-16T22:14:18.765Z,114.37
2023-02-16T22:16:47.474Z,123.00
2023-02-16T22:19:17.041Z,120.13
2023-02-16T22:21:45.963Z,111.80
2023-02-16T22:24:15.287Z,117.70
2023-02-16T22:26:42.888Z,110.13
2023-02-16T22:29:10.592Z,114.97
2023-02-16T22:31:38.150Z,122.77
2023-02-16T22:34:08.638Z,123.53
2023-02-16T22:36:36.746Z,116.10
2023-02-16T22:39:04.810Z,119.60
2023-02-16T22:41:31.862Z,115.13
2023-02-16T22:44:00.066Z,121.07
2023-02-16T22:46:28.773Z,114.33
2023-02-16T22:48:58.550Z,111.60
2023-02-16T22:51:29.048Z,115.03
2023-02-16T22:53:58.290Z,119.13
2023-02-16T22:56:26.984Z,109.63
2023-02-16T22:58:57.563Z,114.83
2023-02-16T23:01:25.167Z,116.93
2023-02-16T23:03:54.210Z,111.97
2023-02-16T23:06:23.886Z,109.10
2023-02-16T23:08:55.845Z,103.90
2023-02-16T23:11:23.334Z,111.30
2023-02-16T23:13:50.342Z,111.80
2023-02-16T23:16:20.125Z,108.90
2023-02-16T23:18:47.598Z,104.40
2023-02-16T23:21:36.921Z,106.27
2023-02-16T23:24:04.093Z,105.53
2023-02-16T23:26:31.646Z,109.60
2023-02-16T23:29:01.675Z,107.90
2023-02-16T23:31:32.987Z,100.00
2023-02-16T23:34:02.218Z,106.27
2023-02-16T23:36:30.071Z,113.10
2023-02-16T23:39:00.697Z,112.13
2023-02-16T23:41:27.970Z,109.37
2023-02-16T23:43:56.493Z,111.93
2023-02-16T23:46:23.955Z,114.53
2023-02-16T23:48:50.987Z,109.13
2023-02-16T23:51:18.022Z,113.40
2023-02-16T23:53:45.078Z,114.57
2023-02-16T23:56:21.559Z,109.23
2023-02-16T23:58:49.011Z,120.60
